Time;durP1;ratioP1;P1;durP2;ratioP2;P2;SDS_P1;SDS_P2;PMS_P1;PMS_P2;Temp;Humidity;BMP_temperature;BMP_pressure;BME280_temperature;BME280_humidity;BME280_pressure;Samples;Min_cycle;Max_cycle;Signal;HPM_P1;HPM_P2
2022/11/01 00:01:33;;;;;;;9.98;5.80;;;17.20;99.90;;;;;;5035271;28;20447;-85
2022/11/01 00:03:59;;;;;;;12.33;5.67;;;17.20;99.90;;;;;;5036296;28;20200;-84
2022/11/01 00:06:27;;;;;;;8.40;4.80;;;17.20;99.90;;;;;;5036380;28;20213;-88
2022/11/01 00:08:54;;;;;;;11.00;5.17;;;17.10;99.90;;;;;;5036289;28;20205;-83
2022/11/01 00:11:21;;;;;;;9.77;5.07;;;17.10;99.90;;;;;;5036204;28;20203;-86
2022/11/01 00:13:49;;;;;;;10.63;5.23;;;17.20;99.90;;;;;;5036252;28;20228;-87
2022/11/01 00:16:17;;;;;;;8.53;5.10;;;17.20;99.90;;;;;;5035847;28;20202;-88
2022/11/01 00:18:44;;;;;;;9.53;5.13;;;17.30;99.90;;;;;;5036308;28;20662;-86
2022/11/01 00:21:11;;;;;;;9.77;5.30;;;17.30;99.90;;;;;;5036270;28;20667;-83
2022/11/01 00:23:40;;;;;;;7.80;4.23;;;17.30;99.90;;;;;;5036010;28;20204;-82
2022/11/01 00:26:07;;;;;;;8.10;4.37;;;17.40;99.90;;;;;;5036151;28;20208;-85
2022/11/01 00:28:34;;;;;;;7.10;5.10;;;17.40;99.90;;;;;;5035287;28;20208;-82
2022/11/01 00:31:01;;;;;;;8.23;4.67;;;17.40;99.90;;;;;;5035678;28;20203;-89
2022/11/01 00:33:28;;;;;;;8.03;4.13;;;17.40;99.90;;;;;;5034929;28;20601;-88
2022/11/01 00:35:59;;;;;;;8.63;4.47;;;17.50;99.90;;;;;;5035442;28;20196;-83
2022/11/01 00:38:26;;;;;;;7.90;4.47;;;17.50;99.90;;;;;;5035737;28;20226;-85
2022/11/01 00:40:54;;;;;;;6.47;4.50;;;17.50;99.90;;;;;;5035547;28;20203;-89
2022/11/01 00:43:22;;;;;;;7.90;4.57;;;17.50;99.90;;;;;;5035422;28;20528;-90
2022/11/01 00:45:50;;;;;;;10.50;3.87;;;17.60;99.90;;;;;;5035472;28;20272;-87
2022/11/01 00:48:17;;;;;;;9.43;4.57;;;17.60;99.90;;;;;;5035670;28;20203;-82
2022/11/01 00:50:44;;;;;;;7.37;3.53;;;17.70;99.90;;;;;;5035367;28;20215;-83
2022/11/01 00:53:12;;;;;;;8.90;3.77;;;17.70;99.90;;;;;;5034948;28;20232;-87
2022/11/01 00:55:39;;;;;;;6.60;3.73;;;17.70;99.90;;;;;;5035310;28;20565;-84
2022/11/01 00:58:08;;;;;;;8.20;4.13;;;17.70;99.90;;;;;;5034739;28;20198;-84
2022/11/01 01:00:35;;;;;;;7.37;4.30;;;17.70;99.90;;;;;;5035124;28;20187;-83
2022/11/01 01:03:03;;;;;;;7.40;3.97;;;17.70;99.90;;;;;;5034900;28;20218;-87
2022/11/01 01:05:30;;;;;;;5.50;3.33;;;17.60;99.90;;;;;;5034939;28;20195;-84
2022/11/01 01:07:57;;;;;;;5.60;3.63;;;17.60;99.90;;;;;;5034845;28;20199;-84
2022/11/01 01:10:24;;;;;;;8.10;3.67;;;17.60;99.90;;;;;;5034734;28;20207;-83
2022/11/01 01:12:50;;;;;;;3.70;3.37;;;17.60;99.90;;;;;;5034289;28;20227;-86
2022/11/01 01:15:19;;;;;;;7.97;3.80;;;17.50;99.90;;;;;;5034908;28;20207;-88
2022/11/01 01:17:46;;;;;;;7.17;3.43;;;17.50;99.90;;;;;;5034614;28;20238;-86
2022/11/01 01:20:13;;;;;;;5.50;3.17;;;17.50;99.90;;;;;;5034728;28;20215;-84
2022/11/01 01:22:40;;;;;;;6.87;3.20;;;17.50;99.90;;;;;;5034516;28;20213;-88
2022/11/01 01:25:07;;;;;;;7.87;3.53;;;17.50;99.90;;;;;;5034728;28;20197;-84
2022/11/01 01:27:34;;;;;;;7.37;3.10;;;17.50;99.90;;;;;;5034183;28;20549;-86
2022/11/01 01:30:01;;;;;;;5.07;2.93;;;17.60;99.90;;;;;;5034374;28;20571;-83
2022/11/01 01:32:29;;;;;;;4.63;2.40;;;17.50;99.90;;;;;;5034650;28;20199;-89
2022/11/01 01:34:56;;;;;;;7.03;2.30;;;17.30;99.90;;;;;;5034194;28;20206;-84
2022/11/01 01:37:23;;;;;;;3.70;1.60;;;17.10;99.90;;;;;;5034392;28;20559;-84
2022/11/01 01:39:50;;;;;;;4.10;1.67;;;17.00;99.90;;;;;;5034202;28;20653;-86
2022/11/01 01:42:23;;;;;;;3.10;1.07;;;16.90;99.90;;;;;;5034020;28;20557;-90
2022/11/01 01:45:16;;;;;;;3.70;1.30;;;16.80;99.90;;;;;;5034503;28;20201;-86
2022/11/01 01:47:47;;;;;;;2.77;0.80;;;16.70;99.90;;;;;;5034020;28;20568;-87
2022/11/01 01:50:20;;;;;;;1.80;1.00;;;16.80;99.90;;;;;;5034058;28;20205;-88
2022/11/01 01:52:51;;;;;;;3.33;1.10;;;16.80;99.90;;;;;;5034314;28;20193;-90
2022/11/01 01:55:21;;;;;;;4.63;1.30;;;16.70;99.90;;;;;;5034163;28;20198;-86
2022/11/01 01:57:51;;;;;;;3.40;0.87;;;16.60;99.90;;;;;;5034155;28;20531;-87
2022/11/01 02:00:18;;;;;;;2.07;0.77;;;16.60;99.90;;;;;;5033807;28;20206;-90
2022/11/01 02:02:46;;;;;;;2.17;1.10;;;16.50;99.90;;;;;;5033778;28;20646;-86
2022/11/01 02:05:20;;;;;;;5.10;1.20;;;16.40;99.90;;;;;;5033971;28;20662;-84
2022/11/01 02:07:47;;;;;;;1.17;0.60;;;16.40;99.90;;;;;;5033826;28;20199;-83
2022/11/01 02:10:15;;;;;;;2.70;0.90;;;16.30;99.90;;;;;;5033730;28;20192;-84
2022/11/01 02:12:47;;;;;;;1.93;0.77;;;16.20;99.90;;;;;;5033822;28;20215;-85
2022/11/01 02:15:15;;;;;;;1.17;0.80;;;16.20;99.90;;;;;;5033840;28;20208;-84
2022/11/01 02:17:54;;;;;;;1.73;0.70;;;16.00;99.90;;;;;;5033870;28;20262;-85
2022/11/01 02:20:39;;;;;;;2.60;0.70;;;16.00;99.90;;;;;;5033746;28;20203;-86
2022/11/01 02:23:35;;;;;;;0.93;0.80;;;15.90;99.90;;;;;;5033501;28;20238;-85
2022/11/01 02:26:31;;;;;;;3.90;0.83;;;15.90;99.90;;;;;;5033040;28;20200;-92
2022/11/01 02:29:10;;;;;;;3.40;0.80;;;15.80;99.90;;;;;;5033688;28;20208;-85
2022/11/01 02:31:58;;;;;;;1.53;0.90;;;15.80;99.90;;;;;;5033611;28;20207;-85
2022/11/01 02:34:29;;;;;;;1.17;0.60;;;15.70;99.90;;;;;;5033688;28;20241;-86
2022/11/01 02:37:00;;;;;;;1.27;0.70;;;15.80;99.90;;;;;;5033991;28;20195;-87
2022/11/01 02:39:30;;;;;;;1.57;0.70;;;15.70;99.90;;;;;;5037354;28;20191;-84
2022/11/01 02:42:02;;;;;;;1.83;0.80;;;15.70;99.90;;;;;;5037747;28;20200;-91
2022/11/01 02:44:35;;;;;;;4.17;0.80;;;15.60;99.90;;;;;;5037415;28;20209;-86
2022/11/01 02:47:06;;;;;;;2.83;0.73;;;15.50;99.90;;;;;;5037542;28;20199;-83
2022/11/01 02:49:36;;;;;;;2.53;0.60;;;15.50;99.90;;;;;;5037621;28;20212;-87
2022/11/01 02:52:06;;;;;;;1.73;1.00;;;15.50;99.90;;;;;;5037350;28;20286;-85
2022/11/01 02:54:37;;;;;;;0.87;0.70;;;15.40;99.90;;;;;;5031611;28;20228;-91
2022/11/01 02:57:12;;;;;;;0.80;0.80;;;15.40;99.90;;;;;;5015695;28;20545;-85
2022/11/01 02:59:43;;;;;;;3.70;0.80;;;15.30;99.90;;;;;;5015355;28;20195;-85
2022/11/01 03:02:19;;;;;;;1.53;1.20;;;15.30;99.90;;;;;;5016881;28;20228;-85
2022/11/01 03:04:47;;;;;;;1.67;0.70;;;15.20;99.90;;;;;;5017800;28;20217;-91
2022/11/01 03:07:15;;;;;;;2.37;0.73;;;15.20;99.90;;;;;;5016967;28;20211;-88
2022/11/01 03:09:42;;;;;;;1.67;0.60;;;15.20;99.90;;;;;;5017705;28;20651;-85
2022/11/01 03:12:16;;;;;;;5.10;0.83;;;15.20;99.90;;;;;;5017597;28;20204;-91
2022/11/01 03:14:52;;;;;;;2.57;0.90;;;15.20;99.90;;;;;;5017559;28;20239;-92
2022/11/01 03:17:32;;;;;;;3.50;1.20;;;15.20;99.90;;;;;;5017013;28;20231;-86
2022/11/01 03:20:06;;;;;;;3.90;1.00;;;15.20;99.90;;;;;;5017364;28;20209;-85
2022/11/01 03:22:40;;;;;;;2.83;1.07;;;15.20;99.90;;;;;;5017157;28;20226;-85
2022/11/01 03:27:56;;;;;;;1.80;1.07;;;15.10;99.90;;;;;;5015940;28;20270;-85
2022/11/01 03:30:23;;;;;;;4.03;0.80;;;15.00;99.90;;;;;;5016888;28;21364;-87
2022/11/01 03:32:55;;;;;;;3.67;0.90;;;15.00;99.90;;;;;;5016528;28;20200;-86
2022/11/01 03:35:25;;;;;;;2.03;1.10;;;14.90;99.90;;;;;;5016528;28;20231;-87
2022/11/01 03:37:55;;;;;;;4.07;0.90;;;14.90;99.90;;;;;;5016392;28;20200;-86
2022/11/01 03:40:25;;;;;;;1.37;0.77;;;14.90;99.90;;;;;;5016934;28;20649;-91
2022/11/01 03:42:53;;;;;;;5.25;1.08;;;14.80;99.90;;;;;;5016707;28;20428;-86
2022/11/01 03:45:24;;;;;;;2.50;0.90;;;14.80;99.90;;;;;;5017061;28;20215;-88
2022/11/01 03:47:52;;;;;;;4.30;0.90;;;14.80;99.90;;;;;;5016917;28;20192;-85
2022/11/01 03:50:21;;;;;;;2.17;0.73;;;14.70;99.90;;;;;;5015821;28;20211;-86
2022/11/01 03:52:48;;;;;;;4.27;1.20;;;14.70;99.90;;;;;;5016448;28;20215;-87
2022/11/01 03:55:20;;;;;;;3.67;1.00;;;14.70;99.90;;;;;;5016329;28;20223;-86
2022/11/01 03:57:47;;;;;;;5.33;1.00;;;14.60;99.90;;;;;;5016166;28;20661;-85
2022/11/01 04:00:15;;;;;;;2.70;0.73;;;14.70;99.90;;;;;;5016091;28;20196;-85
2022/11/01 04:02:43;;;;;;;3.00;0.97;;;14.70;99.90;;;;;;5016087;28;20207;-85
2022/11/01 04:05:12;;;;;;;1.93;0.80;;;14.60;99.90;;;;;;5016339;28;20207;-88
2022/11/01 04:07:38;;;;;;;5.70;1.00;;;14.70;99.90;;;;;;5015751;28;20200;-84
2022/11/01 04:10:06;;;;;;;5.33;1.03;;;14.70;99.90;;;;;;5016061;28;20208;-88
2022/11/01 04:12:33;;;;;;;3.40;1.20;;;14.70;99.90;;;;;;5015899;28;20211;-88
2022/11/01 04:20:44;;;;;;;9.00;2.20;;;14.60;99.90;;;;;;4974419;28;20197;-85
2022/11/01 04:23:11;;;;;;;4.87;1.50;;;14.60;99.90;;;;;;4974819;28;20209;-92
2022/11/01 04:25:37;;;;;;;5.77;1.50;;;14.50;99.90;;;;;;4993277;28;20203;-88
2022/11/01 04:28:05;;;;;;;8.47;1.20;;;14.40;99.90;;;;;;5016121;28;20211;-86
2022/11/01 04:30:32;;;;;;;8.00;1.23;;;14.40;99.90;;;;;;5016362;28;20192;-86
2022/11/01 04:32:59;;;;;;;5.17;1.47;;;14.30;99.90;;;;;;5016199;28;20189;-86
2022/11/01 04:35:25;;;;;;;7.67;1.30;;;14.20;99.90;;;;;;5015559;28;20246;-91
2022/11/01 04:37:57;;;;;;;3.73;1.10;;;14.20;99.90;;;;;;5015977;28;20208;-93
2022/11/01 04:40:25;;;;;;;4.57;1.10;;;14.10;99.90;;;;;;5016039;28;20655;-92
2022/11/01 04:42:52;;;;;;;4.93;1.03;;;14.10;99.90;;;;;;5015542;28;20188;-92
2022/11/01 04:45:20;;;;;;;3.07;1.07;;;14.00;99.90;;;;;;5015617;28;20549;-91
2022/11/01 04:47:51;;;;;;;4.57;1.20;;;14.10;99.90;;;;;;5015865;28;20266;-90
2022/11/01 04:50:19;;;;;;;7.87;1.13;;;14.00;99.90;;;;;;5014997;28;20212;-86
2022/11/01 04:52:46;;;;;;;2.93;1.17;;;14.00;99.90;;;;;;5015172;28;20215;-86
2022/11/01 04:55:14;;;;;;;7.47;1.50;;;14.00;99.90;;;;;;5016031;28;20232;-86
2022/11/01 04:57:42;;;;;;;4.73;1.20;;;13.90;99.90;;;;;;5015764;28;20192;-92
2022/11/01 05:00:11;;;;;;;6.53;1.50;;;13.90;99.90;;;;;;5015758;28;20196;-89
2022/11/01 05:02:39;;;;;;;3.70;1.03;;;13.80;99.90;;;;;;5015764;28;20214;-86
2022/11/01 05:05:08;;;;;;;7.87;1.40;;;13.80;99.90;;;;;;5015509;28;20685;-91
2022/11/01 05:07:36;;;;;;;2.20;1.37;;;13.70;99.90;;;;;;5016078;28;20210;-90
2022/11/01 05:10:03;;;;;;;5.43;1.53;;;13.70;99.90;;;;;;5015320;28;20207;-92
2022/11/01 05:12:31;;;;;;;3.70;1.00;;;13.70;99.90;;;;;;5014590;28;20211;-92
2022/11/01 05:14:58;;;;;;;8.53;1.43;;;13.70;99.90;;;;;;5014952;28;20242;-86
2022/11/01 05:17:24;;;;;;;5.70;1.10;;;13.70;99.90;;;;;;5014731;28;20235;-92
2022/11/01 05:19:51;;;;;;;6.93;1.70;;;13.70;99.90;;;;;;5013365;28;20924;-87
2022/11/01 05:22:19;;;;;;;5.80;1.47;;;13.70;99.90;;;;;;5014957;28;20200;-89
2022/11/01 05:24:46;;;;;;;4.67;1.67;;;13.60;99.90;;;;;;5014681;28;20640;-88
2022/11/01 05:27:12;;;;;;;5.60;1.20;;;13.50;99.90;;;;;;5015312;28;20201;-92
2022/11/01 05:29:41;;;;;;;5.43;1.57;;;13.50;99.90;;;;;;5014612;28;20646;-91
2022/11/01 05:32:08;;;;;;;5.37;1.20;;;13.40;99.90;;;;;;5014532;28;20199;-92
2022/11/01 05:34:34;;;;;;;6.13;1.80;;;13.40;99.90;;;;;;5014158;28;20645;-87
2022/11/01 05:37:01;;;;;;;5.07;1.47;;;13.40;99.90;;;;;;5014348;28;20218;-86
2022/11/01 05:39:28;;;;;;;8.33;1.87;;;13.30;99.90;;;;;;5014645;28;20207;-93
2022/11/01 05:41:54;;;;;;;5.63;1.67;;;13.20;99.90;;;;;;5014945;28;20211;-92
2022/11/01 05:44:21;;;;;;;10.43;2.10;;;13.30;99.90;;;;;;5015403;28;20218;-90
2022/11/01 05:46:50;;;;;;;5.30;1.43;;;13.20;99.90;;;;;;5014829;28;20207;-91
2022/11/01 05:49:17;;;;;;;9.33;1.70;;;13.20;99.90;;;;;;5014163;28;20202;-88
2022/11/01 05:51:44;;;;;;;12.73;2.10;;;13.10;99.90;;;;;;5013082;28;20907;-93
2022/11/01 05:54:11;;;;;;;5.93;1.70;;;13.20;99.90;;;;;;5014593;28;20228;-92
2022/11/01 05:56:38;;;;;;;8.23;1.90;;;13.10;99.90;;;;;;5014584;28;20215;-87
2022/11/01 05:59:05;;;;;;;7.57;1.73;;;13.10;99.90;;;;;;5014388;28;20219;-91
2022/11/01 06:01:32;;;;;;;7.57;2.13;;;13.10;99.90;;;;;;5023886;28;20667;-86
2022/11/01 06:04:00;;;;;;;5.23;1.53;;;13.00;99.90;;;;;;5033251;28;20214;-87
2022/11/01 06:06:28;;;;;;;8.13;1.70;;;13.00;99.90;;;;;;5033335;28;20210;-91
2022/11/01 06:08:55;;;;;;;8.13;1.70;;;12.90;99.90;;;;;;5034042;28;20255;-86
2022/11/01 06:11:22;;;;;;;7.30;1.73;;;12.90;99.90;;;;;;5034871;28;20204;-94
2022/11/01 06:13:53;;;;;;;5.60;1.87;;;12.90;99.90;;;;;;5033292;28;20653;-85
2022/11/01 06:16:20;;;;;;;7.23;1.80;;;12.90;99.90;;;;;;5033991;28;20275;-91
2022/11/01 06:18:47;;;;;;;6.57;2.03;;;12.80;99.90;;;;;;5033680;28;20220;-86
2022/11/01 06:21:16;;;;;;;10.20;1.80;;;12.80;99.90;;;;;;5034074;28;20202;-89
2022/11/01 06:23:46;;;;;;;7.23;2.33;;;12.70;99.90;;;;;;5029876;28;20217;-87
2022/11/01 06:26:13;;;;;;;6.90;1.80;;;12.70;99.90;;;;;;5027244;28;20202;-87
2022/11/01 06:28:40;;;;;;;9.33;2.67;;;12.70;99.90;;;;;;5033887;28;20557;-91
2022/11/01 06:31:07;;;;;;;7.57;1.70;;;12.60;99.90;;;;;;5033472;28;20219;-94
2022/11/01 06:33:34;;;;;;;8.33;2.20;;;12.50;99.90;;;;;;5033433;28;20220;-88
2022/11/01 06:36:01;;;;;;;8.27;1.93;;;12.50;99.90;;;;;;5033497;28;20243;-89
2022/11/01 06:38:29;;;;;;;9.93;2.60;;;12.50;99.90;;;;;;5033429;28;20205;-87
2022/11/01 06:40:56;;;;;;;6.00;1.93;;;12.40;99.90;;;;;;5033539;28;20674;-93
2022/11/01 06:43:23;;;;;;;6.50;1.50;;;12.40;99.90;;;;;;5033426;28;20203;-93
2022/11/01 06:45:50;;;;;;;6.20;1.50;;;12.30;99.90;;;;;;5033092;28;20699;-89
2022/11/01 06:48:16;;;;;;;13.90;2.43;;;12.30;99.90;;;;;;5033322;28;20200;-92
2022/11/01 06:50:43;;;;;;;8.93;1.80;;;12.30;99.90;;;;;;5033619;28;20207;-88
2022/11/01 06:53:10;;;;;;;11.23;2.17;;;12.20;99.90;;;;;;5034351;28;20292;-87
2022/11/01 06:55:38;;;;;;;10.83;2.20;;;12.20;99.90;;;;;;5033203;28;20217;-87
2022/11/01 06:58:05;;;;;;;7.33;2.57;;;12.20;99.90;;;;;;5033523;28;20213;-92
2022/11/01 07:00:32;;;;;;;5.90;1.83;;;12.30;99.90;;;;;;5033289;28;20209;-89
2022/11/01 07:03:00;;;;;;;5.87;1.67;;;12.20;99.90;;;;;;5033942;28;20208;-91
2022/11/01 07:05:27;;;;;;;12.10;2.47;;;12.20;99.90;;;;;;5039186;28;20204;-87
2022/11/01 07:07:54;;;;;;;8.60;1.70;;;12.20;99.90;;;;;;5024187;28;20217;-88
2022/11/01 07:10:22;;;;;;;11.10;1.70;;;12.20;99.90;;;;;;5034717;28;20564;-89
2022/11/01 07:12:50;;;;;;;9.00;1.77;;;12.20;99.90;;;;;;5034606;28;20701;-92
2022/11/01 07:15:17;;;;;;;10.37;2.17;;;12.20;99.90;;;;;;5032853;28;20239;-92
2022/11/01 07:17:44;;;;;;;9.53;1.80;;;12.20;99.90;;;;;;5033237;28;20237;-88
2022/11/01 07:20:11;;;;;;;10.73;2.53;;;12.20;99.90;;;;;;5033208;28;20201;-88
2022/11/01 07:22:38;;;;;;;8.07;2.00;;;12.20;99.90;;;;;;5028048;28;20205;-90
2022/11/01 07:25:06;;;;;;;10.90;1.90;;;12.20;99.90;;;;;;5034225;28;20212;-92
2022/11/01 07:27:35;;;;;;;7.90;2.13;;;12.20;99.90;;;;;;5033025;28;20205;-88
2022/11/01 07:30:04;;;;;;;9.80;2.57;;;12.20;99.90;;;;;;5033318;28;20197;-91
2022/11/01 07:32:31;;;;;;;8.33;1.87;;;12.20;99.90;;;;;;5036903;28;20196;-89
2022/11/01 07:34:58;;;;;;;5.80;1.70;;;12.20;99.90;;;;;;5037448;28;20233;-86
2022/11/01 07:37:29;;;;;;;5.43;1.93;;;12.20;99.90;;;;;;5036837;28;20197;-92
2022/11/01 07:39:56;;;;;;;8.47;2.03;;;12.20;99.90;;;;;;5037338;28;20193;-87
2022/11/01 07:42:24;;;;;;;5.87;1.80;;;12.30;99.90;;;;;;5034450;28;20556;-92
2022/11/01 07:44:50;;;;;;;14.70;2.77;;;12.30;99.90;;;;;;5025071;28;20224;-93
2022/11/01 07:47:18;;;;;;;8.80;2.07;;;12.30;99.90;;;;;;5036606;28;20217;-94
2022/11/01 07:49:46;;;;;;;11.20;2.40;;;12.30;99.90;;;;;;5037356;28;20208;-95
2022/11/01 07:52:13;;;;;;;10.67;2.60;;;12.30;99.90;;;;;;5036855;28;20208;-92
2022/11/01 07:54:40;;;;;;;9.77;2.13;;;12.40;99.90;;;;;;5037332;28;20203;-92
2022/11/01 07:57:08;;;;;;;9.00;1.90;;;12.40;99.90;;;;;;5037149;28;20207;-93
2022/11/01 07:59:36;;;;;;;9.93;2.43;;;12.40;99.90;;;;;;5036747;28;20247;-86
2022/11/01 08:02:02;;;;;;;10.63;2.10;;;12.40;99.90;;;;;;5036900;28;20205;-88
2022/11/01 08:04:30;;;;;;;9.27;2.30;;;12.40;99.90;;;;;;5036145;28;20680;-87
2022/11/01 08:06:57;;;;;;;8.43;2.20;;;12.50;99.90;;;;;;5036506;28;20665;-93
2022/11/01 08:09:24;;;;;;;8.03;1.93;;;12.50;99.90;;;;;;5037122;28;20206;-94
2022/11/01 08:11:51;;;;;;;10.50;2.27;;;12.50;99.90;;;;;;5035721;28;20217;-89
2022/11/01 08:14:17;;;;;;;10.30;2.03;;;12.60;99.90;;;;;;5035739;28;20208;-93
2022/11/01 08:16:47;;;;;;;8.33;2.10;;;12.60;99.90;;;;;;5037896;28;20680;-91
2022/11/01 08:19:14;;;;;;;9.00;2.17;;;12.60;99.90;;;;;;5037208;28;20211;-92
2022/11/01 08:21:42;;;;;;;9.80;2.47;;;12.60;99.90;;;;;;5037577;28;20209;-94
2022/11/01 08:24:10;;;;;;;8.75;2.17;;;12.60;99.90;;;;;;5034978;28;20435;-90
2022/11/01 08:26:37;;;;;;;8.43;2.10;;;12.70;99.90;;;;;;5036016;28;20218;-92
2022/11/01 08:29:03;;;;;;;13.17;1.97;;;12.80;99.90;;;;;;5036613;28;20208;-91
2022/11/01 08:31:30;;;;;;;7.60;1.50;;;12.80;99.90;;;;;;5036816;28;20193;-87
2022/11/01 08:33:58;;;;;;;12.60;2.40;;;12.80;99.90;;;;;;5035396;28;20210;-90
2022/11/01 08:36:25;;;;;;;10.30;2.70;;;12.90;99.90;;;;;;5034592;28;20226;-90
2022/11/01 08:38:53;;;;;;;10.30;3.20;;;12.80;99.90;;;;;;5036153;28;20216;-91
2022/11/01 08:41:20;;;;;;;10.83;2.20;;;12.90;99.90;;;;;;5035715;28;20209;-88
2022/11/01 08:43:48;;;;;;;13.80;2.50;;;13.10;99.90;;;;;;5037804;28;20209;-91
2022/11/01 08:46:14;;;;;;;9.83;2.60;;;13.10;99.90;;;;;;5038988;28;20206;-93
2022/11/01 08:48:42;;;;;;;8.30;2.30;;;13.10;99.90;;;;;;5035433;28;20625;-92
2022/11/01 08:51:09;;;;;;;10.80;2.20;;;13.10;99.90;;;;;;5034093;28;20209;-91
2022/11/01 08:53:36;;;;;;;13.07;2.23;;;13.20;99.90;;;;;;5038076;28;20214;-95
2022/11/01 08:56:05;;;;;;;4.67;1.77;;;13.30;99.90;;;;;;5037547;28;20237;-90
2022/11/01 08:58:32;;;;;;;11.30;2.13;;;13.30;99.90;;;;;;5042698;28;20299;-92
2022/11/01 09:00:58;;;;;;;10.77;3.07;;;13.30;99.90;;;;;;5039275;28;20565;-90
2022/11/01 09:03:25;;;;;;;13.70;2.67;;;13.40;99.90;;;;;;5042573;28;20645;-91
2022/11/01 09:05:52;;;;;;;9.07;1.80;;;13.40;99.90;;;;;;5038364;28;20206;-93
2022/11/01 09:08:19;;;;;;;9.63;2.47;;;13.50;99.90;;;;;;5036846;28;20206;-93
2022/11/01 09:10:46;;;;;;;7.83;2.30;;;13.50;99.90;;;;;;5042709;28;20202;-90
2022/11/01 09:13:14;;;;;;;11.00;2.30;;;13.50;99.90;;;;;;5039790;28;20210;-91
2022/11/01 09:15:41;;;;;;;10.77;2.50;;;13.50;99.90;;;;;;5036040;28;20226;-92
2022/11/01 09:18:08;;;;;;;10.87;2.60;;;13.60;99.90;;;;;;5038097;28;20261;-90
2022/11/01 09:20:35;;;;;;;10.97;2.20;;;13.70;99.90;;;;;;5048988;28;20210;-88
2022/11/01 09:23:01;;;;;;;8.17;2.10;;;13.70;99.90;;;;;;5036053;28;20210;-87
2022/11/01 09:25:28;;;;;;;10.80;2.50;;;13.80;99.90;;;;;;5046891;28;20207;-91
2022/11/01 09:27:57;;;;;;;10.80;2.07;;;13.80;99.90;;;;;;5048338;28;20281;-93
2022/11/01 09:30:26;;;;;;;12.20;3.27;;;13.80;99.90;;;;;;5036792;28;20241;-89
2022/11/01 09:32:53;;;;;;;13.47;2.47;;;13.90;99.90;;;;;;5034483;28;20207;-90
2022/11/01 09:35:20;;;;;;;13.50;2.57;;;13.90;99.90;;;;;;5037020;28;20215;-94
2022/11/01 09:37:46;;;;;;;11.00;2.97;;;14.00;99.90;;;;;;5017793;28;20207;-94
2022/11/01 09:40:14;;;;;;;9.33;2.60;;;14.00;99.90;;;;;;5035129;28;20195;-91
2022/11/01 09:42:44;;;;;;;7.53;2.20;;;14.00;99.90;;;;;;5033153;28;20203;-90
2022/11/01 09:45:17;;;;;;;10.53;2.30;;;14.00;99.90;;;;;;5039109;28;20203;-91
2022/11/01 09:47:47;;;;;;;8.83;2.03;;;14.10;99.90;;;;;;5042809;28;20214;-91
2022/11/01 09:50:21;;;;;;;7.70;2.13;;;14.10;99.90;;;;;;5028493;28;20202;-93
2022/11/01 09:52:49;;;;;;;7.80;2.27;;;14.10;99.90;;;;;;5047184;28;20257;-92
2022/11/01 09:55:19;;;;;;;7.43;1.83;;;14.20;99.90;;;;;;5045383;28;20210;-93
2022/11/01 09:57:51;;;;;;;9.60;1.90;;;14.20;99.90;;;;;;5044363;28;20566;-92
2022/11/01 10:00:20;;;;;;;10.13;2.23;;;14.20;99.90;;;;;;5044161;28;20207;-92
2022/11/01 10:03:15;;;;;;;12.53;2.37;;;14.20;99.90;;;;;;5043893;28;20678;-91
2022/11/01 10:05:50;;;;;;;7.47;2.13;;;14.30;99.90;;;;;;5043967;28;20215;-92
2022/11/01 10:08:33;;;;;;;13.80;2.73;;;14.30;99.90;;;;;;5043958;28;20206;-92
2022/11/01 10:11:14;;;;;;;7.80;2.43;;;14.40;99.90;;;;;;5042593;28;20597;-93
2022/11/01 10:13:50;;;;;;;9.90;2.60;;;14.40;99.90;;;;;;5028743;28;20199;-93
2022/11/01 10:16:26;;;;;;;6.80;2.13;;;14.50;99.90;;;;;;5042195;28;20226;-93
2022/11/01 10:19:05;;;;;;;9.83;2.07;;;14.50;99.90;;;;;;5041505;28;20218;-93
2022/11/01 10:21:41;;;;;;;9.07;1.80;;;14.70;99.90;;;;;;5039534;28;20289;-90
2022/11/01 10:24:20;;;;;;;9.50;1.67;;;14.70;99.90;;;;;;5036877;28;20195;-89
2022/11/01 10:26:50;;;;;;;8.03;2.00;;;14.70;99.90;;;;;;5034705;28;20210;-89
2022/11/01 10:29:23;;;;;;;10.23;2.30;;;14.80;99.90;;;;;;5035386;28;20198;-89
2022/11/01 10:31:54;;;;;;;12.13;2.40;;;14.70;99.90;;;;;;5034938;28;20207;-90
2022/11/01 10:34:25;;;;;;;10.63;2.33;;;14.80;99.90;;;;;;5036201;28;20209;-90
2022/11/01 10:36:58;;;;;;;8.60;2.60;;;14.90;99.90;;;;;;5033637;28;20249;-88
2022/11/01 10:39:35;;;;;;;11.17;2.27;;;15.00;99.90;;;;;;5032106;28;20319;-89
2022/11/01 10:42:08;;;;;;;6.97;2.37;;;15.20;99.90;;;;;;5032838;28;20658;-89
2022/11/01 10:44:45;;;;;;;8.40;1.80;;;15.10;99.90;;;;;;5035674;28;20278;-91
2022/11/01 10:47:17;;;;;;;11.30;2.40;;;15.00;99.90;;;;;;5036395;28;20265;-89
2022/11/01 10:49:49;;;;;;;8.10;2.20;;;15.10;99.90;;;;;;5036432;28;20447;-90
2022/11/01 10:52:23;;;;;;;13.80;2.47;;;15.20;99.90;;;;;;5035717;28;20576;-89
2022/11/01 10:54:57;;;;;;;8.37;2.40;;;15.20;99.90;;;;;;5035980;28;20580;-89
2022/11/01 10:57:31;;;;;;;9.30;2.10;;;15.30;99.90;;;;;;5035288;28;20239;-89
2022/11/01 11:00:03;;;;;;;7.63;1.90;;;15.30;99.90;;;;;;5039234;28;20206;-90
2022/11/01 11:02:35;;;;;;;10.50;2.07;;;15.40;99.90;;;;;;5040341;28;20207;-89
2022/11/01 11:05:03;;;;;;;10.80;2.13;;;15.40;99.90;;;;;;5040018;28;20216;-90
2022/11/01 11:07:36;;;;;;;6.37;1.97;;;15.40;99.90;;;;;;5039394;28;20583;-91
2022/11/01 11:10:17;;;;;;;10.80;2.20;;;15.40;99.90;;;;;;5021585;28;20215;-90
2022/11/01 11:12:47;;;;;;;6.33;1.90;;;15.40;99.90;;;;;;5021710;28;20195;-89
2022/11/01 11:15:19;;;;;;;8.37;2.00;;;15.50;99.90;;;;;;5036757;28;20203;-90
2022/11/01 11:17:48;;;;;;;7.33;2.07;;;15.50;99.90;;;;;;5037817;28;20231;-89
2022/11/01 11:20:21;;;;;;;11.47;2.90;;;15.60;99.90;;;;;;5039000;28;20208;-90
2022/11/01 11:22:50;;;;;;;9.27;2.13;;;15.60;99.90;;;;;;5038714;28;20716;-88
2022/11/01 11:25:21;;;;;;;11.33;2.37;;;15.60;99.90;;;;;;5022162;28;20218;-89
2022/11/01 11:27:55;;;;;;;11.60;2.03;;;15.60;99.90;;;;;;5037753;28;20214;-91
2022/11/01 11:30:33;;;;;;;7.63;2.10;;;15.60;99.90;;;;;;5037410;28;20214;-90
2022/11/01 11:33:06;;;;;;;9.40;2.60;;;15.60;99.90;;;;;;5024976;28;20211;-89
2022/11/01 11:35:37;;;;;;;12.10;2.20;;;15.70;99.90;;;;;;5036932;28;20201;-89
2022/11/01 11:38:05;;;;;;;7.23;2.17;;;15.80;99.90;;;;;;5019910;28;20244;-88
2022/11/01 11:40:44;;;;;;;11.90;2.17;;;15.70;99.90;;;;;;5036910;28;20218;-86
2022/11/01 11:43:24;;;;;;;8.27;2.63;;;15.70;99.90;;;;;;5024191;28;20205;-88
2022/11/01 11:46:08;;;;;;;8.23;2.10;;;15.80;99.90;;;;;;5036542;28;20275;-88
2022/11/01 11:48:46;;;;;;;8.27;2.17;;;15.90;99.90;;;;;;5036586;28;20205;-89
2022/11/01 11:51:14;;;;;;;9.20;2.13;;;15.90;99.90;;;;;;5036250;28;20684;-89
2022/11/01 11:53:41;;;;;;;8.87;2.23;;;16.00;99.90;;;;;;5019087;28;20208;-89
2022/11/01 11:56:10;;;;;;;9.13;2.27;;;16.00;99.90;;;;;;5036441;28;20249;-89
2022/11/01 11:58:47;;;;;;;7.40;1.87;;;16.00;99.90;;;;;;5036762;28;20283;-89
2022/11/01 12:01:19;;;;;;;10.77;2.10;;;16.00;99.90;;;;;;5036636;28;20210;-89
2022/11/01 12:03:50;;;;;;;8.67;2.00;;;16.10;99.90;;;;;;5036684;28;20213;-90
2022/11/01 12:06:21;;;;;;;9.33;2.13;;;16.10;99.90;;;;;;5036426;28;20224;-89
2022/11/01 12:08:52;;;;;;;9.80;2.03;;;16.20;99.90;;;;;;5037135;28;20204;-88
2022/11/01 12:11:19;;;;;;;8.33;1.77;;;16.10;99.90;;;;;;5017943;28;20663;-89
2022/11/01 12:14:01;;;;;;;9.93;2.40;;;16.20;99.90;;;;;;5036741;28;20208;-89
2022/11/01 12:16:40;;;;;;;7.63;2.00;;;16.20;99.90;;;;;;5036665;28;20228;-88
2022/11/01 12:19:23;;;;;;;6.23;2.00;;;16.20;99.90;;;;;;5036020;28;20583;-89
2022/11/01 12:21:57;;;;;;;9.43;2.10;;;16.30;99.90;;;;;;5036534;28;20216;-89
2022/11/01 12:24:28;;;;;;;7.83;2.07;;;16.30;99.90;;;;;;5036181;28;20221;-89
2022/11/01 12:27:00;;;;;;;8.43;1.50;;;16.40;99.90;;;;;;5036375;28;20629;-88
2022/11/01 12:29:35;;;;;;;11.33;2.27;;;16.30;99.90;;;;;;5036367;28;20218;-89
2022/11/01 12:32:14;;;;;;;8.27;1.93;;;16.40;99.90;;;;;;5036379;28;20680;-90
2022/11/01 12:34:44;;;;;;;10.43;2.20;;;16.40;99.90;;;;;;5035522;28;20726;-90
2022/11/01 12:37:18;;;;;;;8.60;2.00;;;16.40;99.90;;;;;;5035783;28;20699;-88
2022/11/01 12:39:50;;;;;;;8.20;2.07;;;16.40;99.90;;;;;;5022808;28;20209;-89
2022/11/01 12:42:23;;;;;;;8.30;2.10;;;16.40;99.90;;;;;;5014872;28;20664;-89
2022/11/01 12:44:54;;;;;;;9.27;2.53;;;16.50;99.90;;;;;;5036047;28;20259;-90
2022/11/01 12:47:27;;;;;;;9.80;2.10;;;16.50;99.90;;;;;;5035770;28;20210;-89
2022/11/01 12:49:58;;;;;;;9.67;1.90;;;16.50;99.90;;;;;;5035130;28;20286;-88
2022/11/01 12:52:31;;;;;;;8.02;1.90;;;16.50;99.90;;;;;;5035747;28;20427;-88
2022/11/01 12:55:06;;;;;;;11.93;2.43;;;16.50;99.90;;;;;;5019695;28;20207;-92
2022/11/01 12:57:33;;;;;;;7.13;2.10;;;16.60;99.90;;;;;;5034085;28;20237;-92
2022/11/01 13:00:01;;;;;;;5.07;1.47;;;16.70;99.90;;;;;;5035997;28;20210;-92
2022/11/01 13:02:40;;;;;;;13.23;1.87;;;16.70;99.90;;;;;;5036177;28;20210;-91
2022/11/01 13:05:12;;;;;;;10.37;2.50;;;16.60;99.90;;;;;;5035896;28;20210;-92
2022/11/01 13:07:56;;;;;;;7.13;1.70;;;16.80;99.90;;;;;;5035809;28;20298;-93